createdAt,value
2017-05-31T00:02:24.000Z,36.105
2017-05-31T00:22:24.000Z,36.056
2017-05-31T00:42:24.000Z,35.988
2017-05-31T00:52:24.000Z,36.082
2017-05-31T01:02:24.000Z,36.21
2017-05-31T01:22:24.000Z,36.184
2017-05-31T01:42:24.000Z,36.669
2017-05-31T02:02:24.000Z,36.907
2017-05-31T02:12:24.000Z,37.068
2017-05-31T02:22:24.000Z,37.132
2017-05-31T02:42:24.000Z,37.272
2017-05-31T03:02:24.000Z,37.689
2017-05-31T03:12:24.000Z,37.765
2017-05-31T03:22:24.000Z,37.71
2017-05-31T03:42:24.000Z,37.785
2017-05-31T04:02:25.000Z,37.99
2017-05-31T04:12:25.000Z,38.032
2017-05-31T04:22:25.000Z,37.987
2017-05-31T04:42:25.000Z,38.106
2017-05-31T05:02:25.000Z,37.872
2017-05-31T05:12:25.000Z,37.769
2017-05-31T05:22:25.000Z,38.216
2017-05-31T05:42:25.000Z,38.093
2017-05-31T06:02:25.000Z,38.269
2017-05-31T06:12:25.000Z,38.456
2017-05-31T06:22:25.000Z,38.314
2017-05-31T06:42:25.000Z,39.252
2017-05-31T07:02:25.000Z,38.71
2017-05-31T07:12:25.000Z,39.161
2017-05-31T07:22:25.000Z,38.754
2017-05-31T07:42:25.000Z,38.431
2017-05-31T08:02:25.000Z,38.19
2017-05-31T08:12:25.000Z,37.846
2017-05-31T08:22:25.000Z,38.146
2017-05-31T08:42:25.000Z,37.688
2017-05-31T09:02:25.000Z,37.141
2017-05-31T09:12:25.000Z,37.077
2017-05-31T09:22:25.000Z,37.258
2017-05-31T09:42:25.000Z,36.393
2017-05-31T10:02:26.000Z,36.046
2017-05-31T10:12:25.000Z,35.865
2017-05-31T10:22:25.000Z,35.979
2017-05-31T10:42:26.000Z,34.494
2017-05-31T11:02:26.000Z,34.702
2017-05-31T11:12:25.000Z,34.133
2017-05-31T11:22:25.000Z,33.978
2017-05-31T11:42:25.000Z,33.419
2017-05-31T12:02:26.000Z,32.715
2017-05-31T12:12:25.000Z,34.648
2017-05-31T12:22:26.000Z,34.397
2017-05-31T12:42:26.000Z,35.291
2017-05-31T13:02:26.000Z,38.048
2017-05-31T13:12:26.000Z,38.691
2017-05-31T13:22:26.000Z,39.039
2017-05-31T13:42:26.000Z,39.138
2017-05-31T14:02:26.000Z,39.092
2017-05-31T14:12:26.000Z,39.175
2017-05-31T14:22:26.000Z,38.936
2017-05-31T14:42:26.000Z,38.12
2017-05-31T15:02:26.000Z,36.692
2017-05-31T15:22:26.000Z,36.534
2017-05-31T15:32:26.000Z,35.704
2017-05-31T15:42:26.000Z,36.748
2017-05-31T16:02:26.000Z,36.12
2017-05-31T16:22:26.000Z,36.421
2017-05-31T16:32:26.000Z,35.862
2017-05-31T16:42:26.000Z,35.12
2017-05-31T17:02:26.000Z,34.541
2017-05-31T17:22:26.000Z,34.121
2017-05-31T17:32:26.000Z,34.083
2017-05-31T17:42:26.000Z,33.862
2017-05-31T18:02:27.000Z,33.412
2017-05-31T18:22:26.000Z,33.426
2017-05-31T18:32:26.000Z,33.628
2017-05-31T18:42:26.000Z,33.574
2017-05-31T19:02:26.000Z,33.375
2017-05-31T19:22:26.000Z,32.732
2017-05-31T19:32:26.000Z,32.878
2017-05-31T19:42:26.000Z,32.729
2017-05-31T20:02:26.000Z,32.423
2017-05-31T20:32:27.000Z,32.42
2017-05-31T20:42:27.000Z,32.466
2017-05-31T21:02:27.000Z,32.284
2017-05-31T21:22:27.000Z,32.167
2017-05-31T21:32:27.000Z,32.276
2017-05-31T21:42:27.000Z,31.94
2017-05-31T22:02:27.000Z,30.799
2017-05-31T22:22:27.000Z,30.146
2017-05-31T22:42:30.000Z,30.075
2017-05-31T22:52:27.000Z,30.125
2017-05-31T23:02:31.000Z,30.009
2017-05-31T23:22:27.000Z,30.079
2017-05-31T23:42:27.000Z,30.348
2017-05-31T23:52:28.000Z,30.344
